Prince George

Airport
ICAO code: 
CYXS
Summary
ICAO Region: 
NAM
Territory: 
Location: 
Prince George, British Columbia,
Coordinates: 
Aerial View: 
53° 53' 21.842" N, 122° 40' 44.403" W
Metar
Observation
CYXS 272002Z AUTO 36005KT 9SM BKN026 OVC071 M02/M02 A2972 RMK SLP099
Station
Prince George, B. C.
Date/Time
2021-11-27 20:02:00
Wind direction
360°
Wind speed
05 kts
Lowest cloud amount
broken clouds
Temperature
-2°C
Dew point
-2°C
Humidity
100%
Weather condition
n/a

Description

Prince George Airport is an airport that serves Prince George, British Columbia, Canada, and the surrounding area. It is located just within the southern boundary of the city, 2.8 nm southeast.

Climatology

Humid Continental climate (Köppen climate classification Dfb) - Variable weather patterns and a large seasonal temperature variance. Summers are often warm and humid with frequent thunderstorms and winters can be very cold with frequent snowfall and persistent snow cover.

Runways

Designator Length Width Surface Rops
1/19 1149 23 ASP Yes/Yes
6/24 1715 46 ASP Yes/Yes
15/33 3490 46 ASP Yes/Yes
Airport map: 
Aerial View: 

Accidents and Serious Incidents at or in the vicinity of CYXS

SKYbrary Partners:

Safety knowledge contributed by: